createdAt,value
2019-01-04T00:00:34.067Z,20.10
2019-01-04T00:03:02.637Z,20.10
2019-01-04T00:05:30.968Z,20.10
2019-01-04T00:07:59.258Z,20.10
2019-01-04T00:10:27.559Z,20.10
2019-01-04T00:12:55.878Z,20.00
2019-01-04T00:15:24.146Z,20.00
2019-01-04T00:17:52.714Z,20.00
2019-01-04T00:20:21.000Z,20.00
2019-01-04T00:22:49.311Z,20.00
2019-01-04T00:25:17.941Z,20.00
2019-01-04T00:27:46.246Z,20.00
2019-01-04T00:30:14.815Z,20.00
2019-01-04T00:32:43.395Z,19.90
2019-01-04T00:35:11.977Z,19.90
2019-01-04T00:37:40.283Z,19.90
2019-01-04T00:40:09.762Z,19.90
2019-01-04T00:42:38.077Z,19.80
2019-01-04T00:45:07.792Z,19.80
2019-01-04T00:47:36.091Z,19.90
2019-01-04T00:50:07.009Z,19.80
2019-01-04T00:52:35.651Z,19.80
2019-01-04T00:55:07.229Z,19.80
2019-01-04T00:57:53.630Z,19.80
2019-01-04T01:00:25.498Z,19.80
2019-01-04T01:02:59.590Z,19.80
2019-01-04T01:05:47.847Z,19.80
2019-01-04T01:08:28.597Z,19.80
2019-01-04T01:11:08.954Z,19.80
2019-01-04T01:13:49.154Z,19.80
2019-01-04T01:16:46.563Z,19.70
2019-01-04T01:19:27.226Z,19.70
2019-01-04T01:22:21.514Z,19.70
2019-01-04T01:25:05.203Z,19.70
2019-01-04T01:27:37.031Z,19.60
2019-01-04T01:30:11.442Z,19.60
2019-01-04T01:33:04.013Z,19.60
2019-01-04T01:35:50.898Z,19.60
2019-01-04T01:38:31.771Z,19.60
2019-01-04T01:41:36.742Z,19.60
2019-01-04T01:44:16.845Z,19.60
2019-01-04T01:46:53.891Z,19.60
2019-01-04T01:49:43.354Z,19.60
2019-01-04T01:52:20.377Z,19.60
2019-01-04T01:54:48.698Z,19.50
2019-01-04T01:57:17.230Z,19.60
2019-01-04T01:59:45.526Z,19.50
2019-01-04T02:02:13.826Z,19.60
2019-01-04T02:04:42.257Z,19.50
2019-01-04T02:07:10.545Z,19.50
2019-01-04T02:09:39.156Z,19.60
2019-01-04T02:12:07.742Z,19.50
2019-01-04T02:14:36.042Z,19.50
2019-01-04T02:17:04.327Z,19.50
2019-01-04T02:19:32.866Z,19.50
2019-01-04T02:22:01.452Z,19.50
2019-01-04T02:24:30.037Z,19.50
2019-01-04T02:26:58.317Z,19.50
2019-01-04T02:29:26.626Z,19.50
2019-01-04T02:31:54.920Z,19.50
2019-01-04T02:34:23.228Z,19.40
2019-01-04T02:36:51.514Z,19.40
2019-01-04T02:39:20.111Z,19.40
2019-01-04T02:41:48.421Z,19.40
2019-01-04T02:44:16.792Z,19.40
2019-01-04T02:46:45.091Z,19.40
2019-01-04T02:49:13.456Z,19.40
2019-01-04T02:51:42.111Z,19.40
2019-01-04T02:54:10.688Z,19.40
2019-01-04T02:56:39.140Z,19.40
2019-01-04T02:59:07.425Z,19.40
2019-01-04T03:01:35.707Z,19.40
2019-01-04T03:04:04.087Z,19.40
2019-01-04T03:06:32.690Z,19.40
2019-01-04T03:09:01.276Z,19.40
2019-01-04T03:11:29.567Z,19.40
2019-01-04T03:13:57.856Z,19.40
2019-01-04T03:16:26.523Z,19.40
2019-01-04T03:18:55.195Z,19.40
2019-01-04T03:21:23.789Z,19.40
2019-01-04T03:23:52.096Z,19.40
2019-01-04T03:26:20.385Z,19.40
2019-01-04T03:28:49.030Z,19.40
2019-01-04T03:31:17.316Z,19.40
2019-01-04T03:33:45.638Z,19.30
2019-01-04T03:36:13.918Z,19.30
2019-01-04T03:38:42.209Z,19.30
2019-01-04T03:41:10.514Z,19.30
2019-01-04T03:43:38.810Z,19.30
2019-01-04T03:46:07.466Z,19.30
2019-01-04T03:48:35.754Z,19.30
2019-01-04T03:51:04.062Z,19.30
2019-01-04T03:53:32.438Z,19.30
2019-01-04T03:56:00.763Z,19.30
2019-01-04T03:58:29.362Z,19.20
2019-01-04T04:00:57.946Z,19.30
2019-01-04T04:03:26.257Z,19.20
2019-01-04T04:05:54.910Z,19.30
2019-01-04T04:08:23.191Z,19.20
2019-01-04T04:10:51.493Z,19.20
2019-01-04T04:13:20.147Z,19.20
2019-01-04T04:15:48.454Z,19.20
2019-01-04T04:18:16.770Z,19.20
2019-01-04T04:20:45.386Z,19.20
2019-01-04T04:23:13.678Z,19.20
2019-01-04T04:25:41.984Z,19.20
2019-01-04T04:28:10.376Z,19.20
2019-01-04T04:30:38.676Z,19.20
2019-01-04T04:33:07.284Z,19.20
2019-01-04T04:35:35.569Z,19.10
2019-01-04T04:38:04.152Z,19.20
2019-01-04T04:40:32.727Z,19.20
2019-01-04T04:43:01.032Z,19.10
2019-01-04T04:45:29.598Z,19.20
2019-01-04T04:47:57.914Z,19.20
2019-01-04T04:50:26.193Z,19.10
2019-01-04T04:52:54.846Z,19.10
2019-01-04T04:55:23.130Z,19.10
2019-01-04T04:57:51.410Z,19.10
2019-01-04T05:00:20.071Z,19.10
2019-01-04T05:02:48.350Z,19.10
2019-01-04T05:05:16.926Z,19.10
2019-01-04T05:07:45.211Z,19.10
2019-01-04T05:10:13.511Z,19.10
2019-01-04T05:12:41.797Z,19.10
2019-01-04T05:15:10.169Z,19.10
2019-01-04T05:17:38.919Z,19.10
2019-01-04T05:20:07.222Z,19.10
2019-01-04T05:22:35.785Z,19.10
2019-01-04T05:25:04.152Z,19.10
2019-01-04T05:27:32.851Z,19.00
2019-01-04T05:30:01.397Z,19.10
2019-01-04T05:32:30.017Z,19.10
2019-01-04T05:34:58.606Z,19.10
2019-01-04T05:37:26.955Z,19.00
2019-01-04T05:39:55.283Z,19.00
2019-01-04T05:42:23.555Z,19.00
2019-01-04T05:44:51.841Z,19.10
2019-01-04T05:47:20.127Z,19.10
2019-01-04T05:49:48.671Z,19.10
2019-01-04T05:52:16.967Z,19.10
2019-01-04T05:54:45.569Z,19.00
2019-01-04T05:57:13.934Z,19.10
2019-01-04T05:59:42.224Z,19.00
2019-01-04T06:02:10.522Z,19.10
2019-01-04T06:04:39.159Z,19.00
2019-01-04T06:07:07.469Z,19.00
2019-01-04T06:09:36.120Z,19.00
2019-01-04T06:12:04.483Z,19.00
2019-01-04T06:14:33.073Z,19.00
2019-01-04T06:17:01.663Z,19.00
2019-01-04T06:19:30.238Z,19.00
2019-01-04T06:21:58.843Z,19.00
2019-01-04T06:24:27.139Z,19.00
2019-01-04T06:26:55.413Z,18.90
2019-01-04T06:29:23.786Z,19.00
2019-01-04T06:31:52.083Z,19.00
2019-01-04T06:34:20.358Z,19.00
2019-01-04T06:36:48.661Z,19.00
2019-01-04T06:39:17.275Z,19.00
2019-01-04T06:41:45.853Z,19.00
2019-01-04T06:44:14.440Z,19.10
2019-01-04T06:47:11.630Z,19.30
2019-01-04T06:49:40.179Z,19.40
2019-01-04T06:52:08.762Z,19.50
2019-01-04T06:55:14.321Z,19.60
2019-01-04T06:57:42.605Z,19.70
2019-01-04T07:00:11.856Z,19.80
2019-01-04T07:02:40.578Z,19.80
2019-01-04T07:05:08.875Z,19.90
2019-01-04T07:07:37.159Z,19.90
2019-01-04T07:10:07.267Z,20.00
2019-01-04T07:12:35.562Z,20.00
2019-01-04T07:15:04.694Z,20.10
2019-01-04T07:17:33.037Z,20.10
2019-01-04T07:20:01.344Z,20.20
2019-01-04T07:22:29.624Z,20.20
2019-01-04T07:24:57.918Z,20.20
2019-01-04T07:27:26.536Z,20.30
2019-01-04T07:29:54.870Z,20.30
2019-01-04T07:32:23.180Z,20.30
2019-01-04T07:34:51.710Z,20.30
2019-01-04T07:37:20.078Z,20.20
2019-01-04T07:39:48.368Z,20.30
2019-01-04T07:42:16.994Z,20.30
2019-01-04T07:44:45.575Z,20.40
2019-01-04T07:47:14.219Z,20.40
2019-01-04T07:49:42.636Z,20.40
2019-01-04T07:52:10.939Z,20.40
2019-01-04T07:54:39.325Z,20.40
2019-01-04T07:57:07.742Z,20.40
2019-01-04T07:59:36.362Z,20.40
2019-01-04T08:02:24.706Z,20.40
2019-01-04T08:04:53.298Z,20.40
2019-01-04T08:07:21.881Z,20.50
2019-01-04T08:09:50.193Z,20.50
2019-01-04T08:12:18.837Z,20.60
2019-01-04T08:14:47.144Z,20.60
2019-01-04T08:17:15.423Z,20.60
2019-01-04T08:19:44.081Z,20.60
2019-01-04T08:22:12.662Z,20.50
2019-01-04T08:24:40.941Z,20.40
2019-01-04T08:27:09.272Z,20.40
2019-01-04T08:29:37.553Z,20.30
2019-01-04T08:32:05.839Z,20.20
2019-01-04T08:34:34.564Z,20.20
2019-01-04T08:37:03.142Z,20.30
2019-01-04T08:39:31.450Z,20.30
2019-01-04T08:41:59.730Z,20.40
2019-01-04T08:44:28.102Z,20.50
2019-01-04T08:46:56.658Z,20.50
2019-01-04T08:49:24.958Z,20.60
2019-01-04T08:51:53.510Z,20.60
2019-01-04T08:54:22.102Z,20.60
2019-01-04T08:56:50.899Z,20.60
2019-01-04T08:59:19.466Z,20.50
2019-01-04T09:01:48.064Z,20.50
2019-01-04T09:04:16.642Z,20.40
2019-01-04T09:06:45.331Z,20.30
2019-01-04T09:09:14.104Z,20.30
2019-01-04T09:11:42.595Z,20.20
2019-01-04T09:14:11.186Z,20.30
2019-01-04T09:16:39.506Z,20.40
2019-01-04T09:19:07.792Z,20.50
2019-01-04T09:21:36.422Z,20.60
2019-01-04T09:24:05.007Z,20.60
2019-01-04T09:26:33.586Z,20.70
2019-01-04T09:29:01.895Z,20.70
2019-01-04T09:31:30.449Z,20.70
2019-01-04T09:33:59.038Z,20.60
2019-01-04T09:36:27.622Z,20.50
2019-01-04T09:38:55.922Z,20.50
2019-01-04T09:41:29.702Z,20.40
2019-01-04T09:43:58.030Z,20.30
2019-01-04T09:46:26.306Z,20.30
2019-01-04T09:48:54.939Z,20.30
2019-01-04T09:51:23.235Z,20.40
2019-01-04T09:53:51.631Z,20.50
2019-01-04T09:56:20.295Z,20.60
2019-01-04T09:58:48.866Z,20.70
2019-01-04T10:01:17.158Z,20.70
2019-01-04T10:03:45.739Z,20.70
2019-01-04T10:06:14.409Z,20.80
2019-01-04T10:08:45.015Z,20.80
2019-01-04T10:11:12.713Z,20.80
2019-01-04T10:13:41.285Z,20.70
2019-01-04T10:16:09.590Z,20.70
2019-01-04T10:18:38.250Z,20.60
2019-01-04T10:21:06.830Z,20.50
2019-01-04T10:23:35.118Z,20.40
2019-01-04T10:26:03.445Z,20.40
2019-01-04T10:28:31.722Z,20.30
2019-01-04T10:31:00.008Z,20.30
2019-01-04T10:33:28.322Z,20.30
2019-01-04T10:35:56.608Z,20.30
2019-01-04T10:38:25.487Z,20.30
2019-01-04T10:40:54.067Z,20.40
2019-01-04T10:43:22.363Z,20.40
2019-01-04T10:45:50.644Z,20.50
2019-01-04T10:48:18.945Z,20.60
2019-01-04T10:50:47.305Z,20.60
2019-01-04T10:53:15.823Z,20.70
2019-01-04T10:55:44.447Z,20.70
2019-01-04T10:58:12.763Z,20.70
2019-01-04T11:00:41.067Z,20.60
2019-01-04T11:03:09.687Z,20.50
2019-01-04T11:05:37.983Z,20.50
2019-01-04T11:08:06.369Z,20.50
2019-01-04T11:10:35.034Z,20.60
2019-01-04T11:13:03.319Z,20.70
2019-01-04T11:15:31.886Z,20.70
2019-01-04T11:18:00.475Z,20.80
2019-01-04T11:20:43.294Z,20.80
2019-01-04T11:23:42.084Z,20.80
2019-01-04T11:26:16.453Z,20.90
2019-01-04T11:28:53.458Z,20.90
2019-01-04T11:31:43.055Z,20.90
2019-01-04T11:34:47.892Z,20.90
2019-01-04T11:37:25.240Z,21.00
2019-01-04T11:39:59.722Z,21.00
2019-01-04T11:42:49.332Z,21.00
2019-01-04T11:45:21.335Z,21.00
2019-01-04T11:48:09.488Z,21.00
2019-01-04T11:50:53.328Z,21.00
2019-01-04T11:53:21.913Z,21.00
2019-01-04T11:55:50.198Z,21.00
2019-01-04T11:58:18.772Z,21.00
2019-01-04T12:00:47.359Z,21.10
2019-01-04T12:03:15.944Z,21.10
2019-01-04T12:05:44.229Z,21.10
2019-01-04T12:08:12.901Z,21.10
2019-01-04T12:10:41.483Z,21.10
2019-01-04T12:13:09.805Z,21.20
2019-01-04T12:15:38.446Z,21.10
2019-01-04T12:18:07.050Z,21.10
2019-01-04T12:20:35.609Z,21.20
2019-01-04T12:23:03.929Z,21.20
2019-01-04T12:25:32.300Z,21.30
2019-01-04T12:28:00.585Z,21.30
2019-01-04T12:30:29.229Z,21.20
2019-01-04T12:32:57.835Z,21.20
2019-01-04T12:35:26.138Z,21.20
2019-01-04T12:37:54.681Z,21.20
2019-01-04T12:40:23.260Z,21.20
2019-01-04T12:42:51.848Z,21.20
2019-01-04T12:45:20.129Z,21.20
2019-01-04T12:47:48.702Z,21.30
2019-01-04T12:50:17.295Z,21.30
2019-01-04T12:52:45.594Z,21.30
2019-01-04T12:55:13.920Z,21.30
2019-01-04T12:57:42.195Z,21.30
2019-01-04T13:00:12.562Z,21.30
2019-01-04T13:02:40.843Z,21.30
2019-01-04T13:05:09.404Z,21.40
2019-01-04T13:07:38.098Z,21.40
2019-01-04T13:10:06.918Z,21.40
2019-01-04T13:12:35.399Z,21.40
2019-01-04T13:15:04.522Z,21.50
2019-01-04T13:17:32.891Z,21.40
2019-01-04T13:20:01.517Z,21.50
2019-01-04T13:22:30.104Z,21.50
2019-01-04T13:24:58.701Z,21.50
2019-01-04T13:27:26.993Z,21.40
2019-01-04T13:29:55.551Z,21.50
2019-01-04T13:32:24.136Z,21.50
2019-01-04T13:34:52.730Z,21.50
2019-01-04T13:37:21.304Z,21.50
2019-01-04T13:39:49.591Z,21.40
2019-01-04T13:42:18.266Z,21.20
2019-01-04T13:44:46.561Z,21.10
2019-01-04T13:47:14.978Z,21.10
2019-01-04T13:49:43.612Z,21.00
2019-01-04T13:52:12.191Z,21.00
2019-01-04T13:54:40.571Z,21.00
2019-01-04T13:57:08.861Z,20.90
2019-01-04T13:59:37.433Z,20.80
2019-01-04T14:02:06.014Z,20.80
2019-01-04T14:04:34.314Z,20.80
2019-01-04T14:07:02.618Z,20.70
2019-01-04T14:09:31.250Z,20.70
2019-01-04T14:11:59.838Z,20.70
2019-01-04T14:14:28.416Z,20.70
2019-01-04T14:16:57.081Z,20.60
2019-01-04T14:19:25.367Z,20.60
2019-01-04T14:21:53.750Z,20.60
2019-01-04T14:24:22.040Z,20.60
2019-01-04T14:26:50.652Z,20.60
2019-01-04T14:29:19.418Z,20.70
2019-01-04T14:31:48.010Z,20.80
2019-01-04T14:34:16.584Z,21.00
2019-01-04T14:36:45.156Z,21.00
2019-01-04T14:39:13.748Z,21.00
2019-01-04T14:41:42.434Z,21.00
2019-01-04T14:44:11.015Z,20.90
2019-01-04T14:46:39.706Z,20.90
2019-01-04T14:49:08.998Z,20.80
2019-01-04T14:51:38.999Z,20.80
2019-01-04T14:54:07.678Z,20.70
2019-01-04T14:56:36.283Z,20.70
2019-01-04T14:59:04.872Z,20.70
2019-01-04T15:01:33.450Z,20.60
2019-01-04T15:04:02.047Z,20.60
2019-01-04T15:06:30.627Z,20.60
2019-01-04T15:08:58.940Z,20.50
2019-01-04T15:11:27.214Z,20.50
2019-01-04T15:13:55.859Z,20.50
2019-01-04T15:16:24.452Z,20.50
2019-01-04T15:18:52.982Z,20.40
2019-01-04T15:21:21.550Z,20.50
2019-01-04T15:23:50.118Z,20.60
2019-01-04T15:26:18.404Z,20.70
2019-01-04T15:28:46.730Z,20.80
2019-01-04T15:31:15.014Z,20.80
2019-01-04T15:33:43.307Z,20.80
2019-01-04T15:36:11.890Z,20.70
2019-01-04T15:38:40.469Z,20.70
2019-01-04T15:41:09.051Z,20.70
2019-01-04T15:43:37.626Z,20.60
2019-01-04T15:46:05.940Z,20.70
2019-01-04T15:48:34.499Z,20.80
2019-01-04T15:51:02.794Z,20.80
2019-01-04T15:53:31.099Z,20.70
2019-01-04T15:55:59.483Z,20.80
2019-01-04T15:58:28.113Z,20.70
2019-01-04T16:00:56.903Z,20.70
2019-01-04T16:03:27.039Z,20.70
2019-01-04T16:05:55.721Z,20.60
2019-01-04T16:08:24.019Z,20.60
2019-01-04T16:10:52.568Z,20.60
2019-01-04T16:13:20.889Z,20.60
2019-01-04T16:15:49.440Z,20.50
2019-01-04T16:18:17.732Z,20.50
2019-01-04T16:20:46.292Z,20.50
2019-01-04T16:23:14.609Z,20.50
2019-01-04T16:25:43.265Z,20.60
2019-01-04T16:28:11.650Z,20.70
2019-01-04T16:30:40.316Z,20.80
2019-01-04T16:33:08.924Z,20.80
2019-01-04T16:35:37.483Z,20.80
2019-01-04T16:38:05.792Z,20.80
2019-01-04T16:40:34.084Z,20.80
2019-01-04T16:43:02.406Z,20.70
2019-01-04T16:45:31.006Z,20.60
2019-01-04T16:47:59.306Z,20.60
2019-01-04T16:53:15.617Z,20.60
2019-01-04T16:55:44.275Z,20.60
2019-01-04T16:58:12.563Z,20.50
2019-01-04T17:00:41.143Z,20.50
2019-01-04T17:03:09.498Z,20.50
2019-01-04T17:05:37.801Z,20.40
2019-01-04T17:08:06.592Z,20.40
2019-01-04T17:10:34.882Z,20.40
2019-01-04T17:13:03.266Z,20.40
2019-01-04T17:15:31.562Z,20.50
2019-01-04T17:17:59.887Z,20.50
2019-01-04T17:20:28.474Z,20.50
2019-01-04T17:22:56.757Z,20.50
2019-01-04T17:25:25.336Z,20.50
2019-01-04T17:27:53.630Z,20.60
2019-01-04T17:30:22.231Z,20.70
2019-01-04T17:32:50.882Z,20.70
2019-01-04T17:35:19.202Z,20.70
2019-01-04T17:37:47.839Z,20.70
2019-01-04T17:40:16.427Z,20.60
2019-01-04T17:42:44.962Z,20.60
2019-01-04T17:45:13.599Z,20.60
2019-01-04T17:47:41.904Z,20.60
2019-01-04T17:50:10.458Z,20.60
2019-01-04T17:52:38.774Z,20.60
2019-01-04T17:55:07.434Z,20.60
2019-01-04T17:57:36.006Z,20.60
2019-01-04T18:00:06.526Z,20.60
2019-01-04T18:02:34.854Z,20.60
2019-01-04T18:05:03.421Z,20.60
2019-01-04T18:07:31.905Z,20.60
2019-01-04T18:10:00.505Z,20.50
2019-01-04T18:12:28.830Z,20.50
2019-01-04T18:14:57.424Z,20.50
2019-01-04T18:17:25.750Z,20.50
2019-01-04T18:19:54.400Z,20.50
2019-01-04T18:22:22.957Z,20.50
2019-01-04T18:24:51.278Z,20.60
2019-01-04T18:27:19.943Z,20.60
2019-01-04T18:29:48.390Z,20.60
2019-01-04T18:32:16.754Z,20.60
2019-01-04T18:34:45.474Z,20.60
2019-01-04T18:37:14.081Z,20.60
2019-01-04T18:39:42.644Z,20.60
2019-01-04T18:42:11.355Z,20.60
2019-01-04T18:44:40.036Z,20.60
2019-01-04T18:47:08.346Z,20.60
2019-01-04T18:49:36.666Z,20.60
2019-01-04T18:52:05.263Z,20.60
2019-01-04T18:54:33.843Z,20.60
2019-01-04T18:57:02.133Z,20.60
2019-01-04T18:59:30.455Z,20.50
2019-01-04T19:01:59.082Z,20.50
2019-01-04T19:04:27.783Z,20.50
2019-01-04T19:06:56.146Z,20.50
2019-01-04T19:09:25.021Z,20.50
2019-01-04T19:11:53.614Z,20.40
2019-01-04T19:14:21.898Z,20.40
2019-01-04T19:16:50.604Z,20.40
2019-01-04T19:19:18.903Z,20.30
2019-01-04T19:21:47.199Z,20.30
2019-01-04T19:24:15.862Z,20.30
2019-01-04T19:26:44.502Z,20.30
2019-01-04T19:29:12.813Z,20.30
2019-01-04T19:31:41.110Z,20.30
2019-01-04T19:34:09.400Z,20.30
2019-01-04T19:36:37.865Z,20.30
2019-01-04T19:39:06.490Z,20.40
2019-01-04T19:41:34.852Z,20.50
2019-01-04T19:44:03.467Z,20.60
2019-01-04T19:46:32.058Z,20.70
2019-01-04T19:49:00.599Z,20.70
2019-01-04T19:51:29.240Z,20.70
2019-01-04T19:53:57.813Z,20.60
2019-01-04T19:56:26.522Z,20.60
2019-01-04T19:58:55.176Z,20.60
2019-01-04T20:01:23.489Z,20.60
2019-01-04T20:03:52.031Z,20.50
2019-01-04T20:07:03.842Z,20.50
2019-01-04T20:10:12.043Z,20.50
2019-01-04T20:13:05.118Z,20.50
2019-01-04T20:15:50.279Z,20.50
2019-01-04T20:18:21.525Z,20.50
2019-01-04T20:20:51.462Z,20.60
2019-01-04T20:23:39.795Z,20.60
2019-01-04T20:26:12.452Z,20.60
2019-01-04T20:28:59.387Z,20.60
2019-01-04T20:31:36.463Z,20.50
2019-01-04T20:34:21.999Z,20.50
2019-01-04T20:37:08.451Z,20.50
2019-01-04T20:39:50.262Z,20.40
2019-01-04T20:42:36.339Z,20.40
2019-01-04T20:45:15.868Z,20.40
2019-01-04T20:48:02.234Z,20.40
2019-01-04T20:50:44.457Z,20.40
2019-01-04T20:53:16.890Z,20.30
2019-01-04T20:55:49.739Z,20.30
2019-01-04T20:58:22.491Z,20.40
2019-01-04T21:01:09.237Z,20.30
2019-01-04T21:03:57.682Z,20.40
2019-01-04T21:06:34.051Z,20.40
2019-01-04T21:09:03.990Z,20.40
2019-01-04T21:11:52.110Z,20.40
2019-01-04T21:14:24.678Z,20.50
2019-01-04T21:17:11.188Z,20.60
2019-01-04T21:19:57.231Z,20.80
2019-01-04T21:22:33.026Z,20.90
2019-01-04T21:25:05.621Z,20.90
2019-01-04T21:27:35.858Z,20.90
2019-01-04T21:30:18.317Z,20.80
2019-01-04T21:32:48.559Z,20.80
2019-01-04T21:35:34.753Z,20.70
2019-01-04T21:38:21.050Z,20.70
2019-01-04T21:40:57.005Z,20.70
2019-01-04T21:43:39.530Z,20.60
2019-01-04T21:46:15.266Z,20.60
2019-01-04T21:48:48.210Z,20.50
2019-01-04T21:51:27.086Z,20.50
2019-01-04T21:53:57.299Z,20.50
2019-01-04T21:56:43.881Z,20.40
2019-01-04T21:59:16.522Z,20.40
2019-01-04T22:01:58.594Z,20.40
2019-01-04T22:04:44.625Z,20.40
2019-01-04T22:10:11.281Z,20.70
2019-01-04T22:12:53.337Z,20.80
2019-01-04T22:15:26.536Z,20.90
2019-01-04T22:18:13.234Z,21.00
2019-01-04T22:20:52.786Z,21.10
2019-01-04T22:23:23.002Z,21.10
2019-01-04T22:26:09.536Z,21.00
2019-01-04T22:28:39.487Z,20.90
2019-01-04T22:31:26.362Z,20.80
2019-01-04T22:34:02.506Z,20.80
2019-01-04T22:36:32.504Z,20.80
2019-01-04T22:39:05.234Z,20.70
2019-01-04T22:41:47.296Z,20.70
2019-01-04T22:44:23.143Z,20.60
2019-01-04T22:46:53.061Z,20.60
2019-01-04T22:49:39.290Z,20.60
2019-01-04T22:52:09.213Z,20.60
2019-01-04T22:54:45.038Z,20.50
2019-01-04T22:57:26.576Z,20.50
2019-01-04T23:00:02.366Z,20.50
2019-01-04T23:02:50.718Z,20.50
2019-01-04T23:05:20.896Z,20.40
2019-01-04T23:08:07.163Z,20.50
2019-01-04T23:10:46.366Z,20.40
2019-01-04T23:13:16.294Z,20.40
2019-01-04T23:15:52.076Z,20.40
2019-01-04T23:18:36.890Z,20.40
2019-01-04T23:21:32.053Z,20.40
2019-01-04T23:24:08.163Z,20.40
2019-01-04T23:26:38.386Z,20.40
2019-01-04T23:29:17.083Z,20.30
2019-01-04T23:31:56.244Z,20.30
2019-01-04T23:34:42.306Z,20.30
2019-01-04T23:37:14.683Z,20.30
2019-01-04T23:39:44.727Z,20.30
2019-01-04T23:42:23.971Z,20.30
2019-01-04T23:45:08.784Z,20.30
2019-01-04T23:47:47.566Z,20.30
2019-01-04T23:53:31.306Z,20.30
2019-01-04T23:56:07.194Z,20.30
2019-01-04T23:58:53.972Z,20.30
